createdAt,value
2023-02-24T00:00:37.790Z,66.35
2023-02-24T00:03:10.963Z,69.25
2023-02-24T00:05:42.624Z,71.68
2023-02-24T00:08:13.393Z,64.78
2023-02-24T00:10:41.722Z,66.63
2023-02-24T00:13:11.980Z,67.22
2023-02-24T00:15:40.175Z,62.55
2023-02-24T00:18:08.630Z,66.15
2023-02-24T00:20:37.253Z,66.38
2023-02-24T00:23:05.323Z,65.67
2023-02-24T00:25:34.735Z,55.78
2023-02-24T00:28:02.793Z,63.88
2023-02-24T00:30:32.905Z,59.35
2023-02-24T00:33:02.811Z,59.17
2023-02-24T00:35:31.013Z,62.15
2023-02-24T00:37:59.514Z,57.67
2023-02-24T00:40:30.241Z,57.17
2023-02-24T00:42:59.763Z,55.47
2023-02-24T00:45:30.829Z,58.70
2023-02-24T00:47:59.227Z,59.58
2023-02-24T00:50:27.399Z,57.53
2023-02-24T00:52:55.476Z,54.38
2023-02-24T00:55:23.584Z,57.17
2023-02-24T00:57:51.830Z,54.75
2023-02-24T01:00:23.390Z,52.85
2023-02-24T01:02:52.280Z,55.40
2023-02-24T01:05:21.133Z,60.25
2023-02-24T01:07:49.206Z,57.47
2023-02-24T01:10:18.219Z,66.07
2023-02-24T01:12:53.838Z,58.00
2023-02-24T01:15:24.325Z,54.67
2023-02-24T01:17:52.442Z,52.35
2023-02-24T01:20:20.824Z,58.90
2023-02-24T01:22:50.366Z,60.10
2023-02-24T01:27:48.519Z,52.08
2023-02-24T01:30:18.321Z,56.00
2023-02-24T01:32:48.678Z,47.40
2023-02-24T01:35:17.671Z,51.00
2023-02-24T01:37:46.289Z,51.42
2023-02-24T01:40:20.515Z,50.90
2023-02-24T01:42:49.395Z,50.90
2023-02-24T01:45:28.950Z,54.83
2023-02-24T01:50:29.936Z,48.13
2023-02-24T01:53:02.413Z,46.95
2023-02-24T01:55:36.830Z,45.88
2023-02-24T01:58:09.910Z,51.58
2023-02-24T02:00:38.930Z,47.42
2023-02-24T02:03:29.652Z,48.60
2023-02-24T02:06:02.589Z,52.47
2023-02-24T02:08:31.416Z,52.42
2023-02-24T02:11:06.567Z,49.88
2023-02-24T02:13:36.755Z,50.63
2023-02-24T02:16:19.574Z,47.80
2023-02-24T02:18:58.994Z,51.58
2023-02-24T02:21:49.344Z,48.55
2023-02-24T02:24:35.346Z,46.97
2023-02-24T02:27:23.327Z,45.05
2023-02-24T02:30:43.812Z,48.85
2023-02-24T02:33:33.778Z,45.67
2023-02-24T02:36:13.912Z,46.00
2023-02-24T02:38:50.686Z,45.45
2023-02-24T02:41:25.577Z,55.10
2023-02-24T02:44:03.609Z,47.78
2023-02-24T02:46:36.553Z,52.03
2023-02-24T02:49:12.848Z,49.33
2023-02-24T02:51:51.630Z,46.22
2023-02-24T02:54:27.100Z,37.10
2023-02-24T02:57:01.899Z,52.72
2023-02-24T02:59:34.441Z,56.13
2023-02-24T03:02:11.729Z,59.92
2023-02-24T03:04:43.330Z,55.30
2023-02-24T03:07:16.758Z,50.50
2023-02-24T03:09:49.543Z,51.38
2023-02-24T03:12:21.550Z,47.92
2023-02-24T03:14:53.546Z,44.45
2023-02-24T03:17:25.731Z,49.70
2023-02-24T03:20:00.549Z,48.63
2023-02-24T03:22:35.885Z,47.22
2023-02-24T03:25:06.231Z,54.22
2023-02-24T03:27:41.185Z,51.20
2023-02-24T03:30:16.470Z,48.72
2023-02-24T03:32:57.517Z,49.30
2023-02-24T03:35:29.429Z,50.20
2023-02-24T03:38:00.496Z,47.72
2023-02-24T03:40:34.129Z,45.65
2023-02-24T03:43:07.584Z,45.47
2023-02-24T03:45:40.675Z,42.40
2023-02-24T03:48:11.869Z,47.78
2023-02-24T03:50:42.210Z,43.35
2023-02-24T03:53:32.867Z,44.85
2023-02-24T03:56:10.874Z,43.58
2023-02-24T03:58:52.565Z,42.03
2023-02-24T04:01:26.461Z,44.40
2023-02-24T04:04:01.339Z,43.95
2023-02-24T04:06:36.778Z,43.15
2023-02-24T04:09:13.211Z,41.08
2023-02-24T04:11:47.232Z,45.38
2023-02-24T04:14:24.852Z,41.38
2023-02-24T04:17:01.083Z,42.15
2023-02-24T04:19:33.530Z,38.72
2023-02-24T04:22:04.010Z,40.25
2023-02-24T04:24:34.886Z,47.60
2023-02-24T04:27:06.367Z,43.67
2023-02-24T04:29:39.283Z,41.28
2023-02-24T04:32:11.055Z,49.38
2023-02-24T04:34:40.525Z,45.25
2023-02-24T04:37:09.252Z,51.78
2023-02-24T04:39:38.930Z,47.40
2023-02-24T04:42:07.870Z,50.63
2023-02-24T04:44:36.279Z,46.55
2023-02-24T04:47:04.891Z,51.05
2023-02-24T04:49:33.972Z,46.83
2023-02-24T04:52:02.011Z,48.15
2023-02-24T04:54:30.087Z,59.00
2023-02-24T04:56:59.563Z,45.47
2023-02-24T05:02:01.281Z,42.47
2023-02-24T05:04:31.822Z,40.90
2023-02-24T05:07:00.268Z,41.83
2023-02-24T05:09:30.156Z,44.75
2023-02-24T05:12:00.353Z,41.40
2023-02-24T05:14:28.615Z,45.42
2023-02-24T05:17:00.313Z,43.10
2023-02-24T05:19:46.260Z,42.75
2023-02-24T05:22:16.953Z,41.10
2023-02-24T05:24:47.887Z,42.40
2023-02-24T05:27:17.563Z,48.35
2023-02-24T05:29:45.885Z,40.20
2023-02-24T05:32:16.311Z,44.35
2023-02-24T05:34:44.442Z,44.50
2023-02-24T05:37:12.481Z,50.72
2023-02-24T05:39:40.991Z,48.88
2023-02-24T05:42:09.504Z,48.67
2023-02-24T05:44:38.928Z,47.58
2023-02-24T05:47:07.719Z,49.88
2023-02-24T05:49:38.778Z,44.95
2023-02-24T05:52:09.189Z,50.47
2023-02-24T05:54:39.433Z,49.70
2023-02-24T05:57:11.648Z,54.92
2023-02-24T05:59:41.711Z,47.60
2023-02-24T06:02:12.538Z,48.20
2023-02-24T06:04:46.543Z,49.92
2023-02-24T06:07:19.714Z,49.78
2023-02-24T06:09:49.930Z,47.85
2023-02-24T06:12:19.019Z,41.92
2023-02-24T06:14:49.151Z,47.42
2023-02-24T06:17:18.562Z,49.78
2023-02-24T06:19:48.011Z,50.55
2023-02-24T06:22:19.124Z,50.90
2023-02-24T06:24:49.231Z,56.65
2023-02-24T06:27:19.449Z,59.00
2023-02-24T06:29:50.796Z,64.53
2023-02-24T06:32:19.128Z,58.17
2023-02-24T06:34:47.407Z,61.22
2023-02-24T06:37:16.631Z,55.90
2023-02-24T06:39:44.890Z,63.50
2023-02-24T06:42:13.803Z,61.20
2023-02-24T06:44:42.529Z,43.35
2023-02-24T06:47:14.085Z,58.80
2023-02-24T06:49:43.051Z,50.47
2023-02-24T06:52:18.289Z,49.28
2023-02-24T06:54:49.365Z,56.28
2023-02-24T06:57:17.663Z,48.00
2023-02-24T06:59:46.140Z,46.15
2023-02-24T07:02:17.580Z,48.63
2023-02-24T07:04:45.855Z,53.00
2023-02-24T07:07:15.120Z,48.80
2023-02-24T07:09:45.367Z,44.42
2023-02-24T07:12:15.569Z,49.95
2023-02-24T07:14:43.997Z,71.68
2023-02-24T07:17:14.699Z,78.57
2023-02-24T07:19:44.173Z,63.65
2023-02-24T07:22:14.690Z,63.45
2023-02-24T07:24:46.288Z,53.97
2023-02-24T07:27:22.394Z,54.65
2023-02-24T07:29:53.704Z,50.70
2023-02-24T07:32:22.773Z,49.10
2023-02-24T07:34:53.044Z,45.80
2023-02-24T07:37:23.566Z,45.22
2023-02-24T07:39:51.771Z,45.13
2023-02-24T07:42:19.901Z,48.83
2023-02-24T07:44:49.221Z,51.08
2023-02-24T07:47:17.552Z,48.33
2023-02-24T07:49:45.829Z,47.58
2023-02-24T07:52:16.119Z,47.95
2023-02-24T07:54:44.370Z,50.00
2023-02-24T07:57:13.670Z,52.95
2023-02-24T07:59:47.083Z,61.38
2023-02-24T08:02:15.801Z,64.18
2023-02-24T08:04:49.915Z,59.13
2023-02-24T08:07:24.597Z,61.72
2023-02-24T08:10:24.213Z,65.25
2023-02-24T08:12:55.458Z,59.10
2023-02-24T08:15:25.014Z,64.55
2023-02-24T08:20:25.945Z,61.22
2023-02-24T08:22:55.959Z,60.85
2023-02-24T08:25:35.433Z,54.13
2023-02-24T08:28:09.007Z,55.28
2023-02-24T08:30:39.984Z,51.70
2023-02-24T08:33:10.317Z,50.42
2023-02-24T08:35:44.568Z,45.00
2023-02-24T08:38:16.874Z,49.63
2023-02-24T08:40:51.266Z,53.83
2023-02-24T08:43:33.072Z,50.85
2023-02-24T08:46:04.681Z,49.92
2023-02-24T08:48:39.171Z,52.28
2023-02-24T08:51:12.134Z,53.40
2023-02-24T08:53:41.559Z,50.47
2023-02-24T08:56:11.855Z,50.13
2023-02-24T08:58:47.303Z,44.28
2023-02-24T09:01:24.243Z,42.40
2023-02-24T09:03:55.588Z,42.90
2023-02-24T09:06:27.464Z,43.33
2023-02-24T09:09:11.904Z,41.75
2023-02-24T09:11:44.035Z,48.03
2023-02-24T09:14:26.720Z,39.30
2023-02-24T09:17:03.170Z,41.60
2023-02-24T09:19:51.417Z,37.65
2023-02-24T09:22:31.382Z,33.67
2023-02-24T09:25:20.969Z,37.67
2023-02-24T09:30:37.336Z,38.08
2023-02-24T09:33:21.194Z,39.08
2023-02-24T09:36:02.878Z,45.30
2023-02-24T09:38:49.110Z,49.58
2023-02-24T09:41:33.203Z,43.78
2023-02-24T09:44:09.757Z,45.85
2023-02-24T09:46:53.831Z,41.28
2023-02-24T09:49:27.037Z,34.38
2023-02-24T09:52:00.565Z,28.58
2023-02-24T09:54:32.862Z,28.83
2023-02-24T09:57:10.314Z,26.05
2023-02-24T10:00:01.094Z,23.92
2023-02-24T10:02:44.272Z,17.17
2023-02-24T10:05:24.800Z,15.52
2023-02-24T10:07:57.059Z,13.63
2023-02-24T10:10:29.064Z,12.60
2023-02-24T10:13:09.600Z,18.88
2023-02-24T10:15:57.787Z,21.67
2023-02-24T10:18:32.927Z,17.30
2023-02-24T10:21:16.685Z,18.65
2023-02-24T10:23:59.486Z,15.43
2023-02-24T10:26:34.832Z,22.48
2023-02-24T10:29:22.500Z,10.13
2023-02-24T10:31:57.723Z,10.27
2023-02-24T10:34:31.870Z,8.75
2023-02-24T10:37:07.732Z,10.95
2023-02-24T10:39:35.860Z,9.93
2023-02-24T10:42:16.507Z,7.75
2023-02-24T10:45:01.390Z,13.15
2023-02-24T10:47:31.990Z,10.70
2023-02-24T10:50:01.685Z,9.65
2023-02-24T10:53:10.927Z,14.40
2023-02-24T10:56:02.116Z,13.30
2023-02-24T10:58:49.602Z,14.45
2023-02-24T11:01:21.911Z,14.90
2023-02-24T11:04:02.130Z,18.85
2023-02-24T11:06:52.605Z,17.25
2023-02-24T11:09:35.259Z,19.98
2023-02-24T11:12:31.025Z,21.17
2023-02-24T11:15:20.469Z,21.25
2023-02-24T11:20:46.148Z,18.65
2023-02-24T11:23:19.826Z,18.92
2023-02-24T11:25:50.197Z,14.88
2023-02-24T11:28:29.184Z,21.02
2023-02-24T11:31:04.878Z,10.52
2023-02-24T11:33:42.765Z,21.92
2023-02-24T11:36:20.513Z,15.32
2023-02-24T11:39:15.298Z,14.18
2023-02-24T11:41:50.686Z,16.83
2023-02-24T11:44:25.834Z,16.63
2023-02-24T11:46:57.697Z,20.23
2023-02-24T11:49:31.616Z,15.77
2023-02-24T11:52:03.933Z,16.67
2023-02-24T11:54:39.859Z,18.40
2023-02-24T11:57:15.361Z,23.23
2023-02-24T11:59:47.725Z,18.75
2023-02-24T12:02:21.905Z,20.63
2023-02-24T12:04:59.747Z,26.73
2023-02-24T12:07:34.360Z,20.77
2023-02-24T12:10:16.557Z,27.27
2023-02-24T12:12:50.094Z,21.48
2023-02-24T12:15:25.526Z,31.52
2023-02-24T12:18:04.268Z,26.95
2023-02-24T12:20:40.494Z,27.92
2023-02-24T12:23:17.964Z,23.92
2023-02-24T12:26:16.588Z,31.13
2023-02-24T12:29:16.171Z,45.63
2023-02-24T12:31:55.519Z,26.23
2023-02-24T12:34:34.286Z,22.80
2023-02-24T12:37:22.421Z,28.85
2023-02-24T12:40:00.423Z,27.70
2023-02-24T12:42:34.767Z,27.92
2023-02-24T12:45:12.205Z,27.20
2023-02-24T12:47:50.455Z,22.05
2023-02-24T12:50:31.209Z,29.45
2023-02-24T12:53:08.138Z,28.92
2023-02-24T12:55:48.081Z,29.23
2023-02-24T12:58:21.388Z,32.85
2023-02-24T13:01:02.109Z,22.58
2023-02-24T13:03:42.286Z,24.30
2023-02-24T13:06:17.756Z,26.08
2023-02-24T13:08:56.805Z,28.98
2023-02-24T13:11:36.383Z,26.58
2023-02-24T13:14:12.740Z,27.85
2023-02-24T13:16:41.648Z,24.48
2023-02-24T13:19:22.116Z,35.78
2023-02-24T13:21:58.173Z,24.08
2023-02-24T13:24:27.715Z,27.20
2023-02-24T13:29:45.157Z,22.92
2023-02-24T13:32:28.798Z,26.52
2023-02-24T13:34:58.541Z,31.73
2023-02-24T13:37:32.438Z,35.67
2023-02-24T13:40:07.314Z,20.67
2023-02-24T13:42:35.905Z,32.38
2023-02-24T13:45:18.413Z,22.30
2023-02-24T13:48:08.634Z,30.27
2023-02-24T13:50:42.049Z,31.08
2023-02-24T13:53:27.252Z,19.48
2023-02-24T13:56:22.102Z,26.17
2023-02-24T13:59:19.851Z,26.38
2023-02-24T14:01:50.919Z,33.65
2023-02-24T14:04:23.501Z,24.98
2023-02-24T14:06:54.661Z,30.08
2023-02-24T14:09:27.954Z,28.33
2023-02-24T14:12:01.399Z,22.85
2023-02-24T14:14:30.337Z,23.83
2023-02-24T14:16:58.690Z,19.30
2023-02-24T14:19:27.321Z,22.17
2023-02-24T14:21:57.150Z,30.47
2023-02-24T14:24:27.600Z,33.88
2023-02-24T14:26:59.276Z,25.17
2023-02-24T14:29:31.948Z,20.55
2023-02-24T14:32:01.011Z,24.88
2023-02-24T14:34:32.255Z,31.77
2023-02-24T14:37:02.925Z,28.02
2023-02-24T14:39:34.153Z,23.83
2023-02-24T14:42:13.606Z,27.98
2023-02-24T14:47:14.206Z,31.60
2023-02-24T14:49:43.177Z,31.35
2023-02-24T14:52:17.091Z,32.28
2023-02-24T14:54:49.081Z,34.85
2023-02-24T14:57:22.825Z,31.27
2023-02-24T14:59:55.284Z,31.30
2023-02-24T15:02:35.280Z,24.58
2023-02-24T15:05:03.471Z,29.70
2023-02-24T15:07:34.796Z,36.20
2023-02-24T15:10:05.392Z,30.38
2023-02-24T15:12:37.751Z,29.95
2023-02-24T15:15:08.566Z,25.05
2023-02-24T15:17:41.433Z,26.95
2023-02-24T15:20:34.181Z,27.85
2023-02-24T15:23:02.729Z,28.58
2023-02-24T15:25:42.144Z,31.77
2023-02-24T15:28:25.938Z,28.70
2023-02-24T15:31:02.354Z,24.42
2023-02-24T15:33:35.218Z,29.70
2023-02-24T15:36:11.160Z,32.42
2023-02-24T15:38:41.751Z,23.90
2023-02-24T15:41:11.655Z,31.17
2023-02-24T15:43:47.912Z,31.65
2023-02-24T15:46:22.212Z,25.83
2023-02-24T15:48:52.604Z,25.40
2023-02-24T15:51:27.512Z,22.85
2023-02-24T15:53:55.648Z,31.15
2023-02-24T15:56:24.321Z,30.98
2023-02-24T15:58:53.922Z,31.80
2023-02-24T16:01:22.042Z,27.25
2023-02-24T16:03:50.596Z,31.08
2023-02-24T16:06:21.242Z,30.73
2023-02-24T16:08:52.034Z,31.02
2023-02-24T16:11:23.527Z,30.75
2023-02-24T16:13:56.259Z,28.33
2023-02-24T16:16:25.326Z,28.20
2023-02-24T16:18:53.622Z,32.17
2023-02-24T16:21:21.811Z,36.83
2023-02-24T16:23:50.304Z,32.75
2023-02-24T16:26:20.982Z,31.45
2023-02-24T16:28:53.955Z,25.25
2023-02-24T16:31:23.734Z,32.08
2023-02-24T16:33:55.395Z,35.25
2023-02-24T16:36:25.493Z,27.65
2023-02-24T16:38:53.764Z,27.35
2023-02-24T16:41:21.983Z,29.75
2023-02-24T16:43:50.183Z,33.42
2023-02-24T16:46:20.256Z,29.85
2023-02-24T16:48:53.784Z,30.25
2023-02-24T16:51:22.979Z,32.20
2023-02-24T16:53:51.162Z,36.38
2023-02-24T16:56:19.490Z,31.70
2023-02-24T16:58:47.730Z,22.58
2023-02-24T17:01:21.156Z,25.13
2023-02-24T17:03:53.784Z,168.07
2023-02-24T17:06:24.015Z,37.63
2023-02-24T17:08:52.529Z,26.00
2023-02-24T17:11:22.306Z,22.42
2023-02-24T17:13:50.522Z,17.05
2023-02-24T17:16:18.703Z,36.15
2023-02-24T17:18:46.886Z,44.13
2023-02-24T17:21:18.014Z,39.63
2023-02-24T17:23:46.191Z,36.35
2023-02-24T17:26:16.153Z,19.73
2023-02-24T17:28:44.856Z,31.42
2023-02-24T17:31:13.021Z,20.73
2023-02-24T17:33:41.494Z,23.80
2023-02-24T17:36:09.773Z,23.73
2023-02-24T17:38:39.172Z,19.15
2023-02-24T17:41:07.557Z,19.92
2023-02-24T17:43:35.621Z,18.20
2023-02-24T17:46:06.933Z,20.10
2023-02-24T17:48:35.591Z,26.55
2023-02-24T17:51:03.739Z,27.90
2023-02-24T17:53:32.268Z,25.27
2023-02-24T17:56:06.315Z,27.70
2023-02-24T17:58:37.144Z,18.30
2023-02-24T18:01:07.444Z,26.95
2023-02-24T18:03:36.826Z,25.25
2023-02-24T18:06:06.905Z,27.00
2023-02-24T18:08:36.077Z,21.75
2023-02-24T18:11:06.779Z,21.50
2023-02-24T18:13:35.103Z,27.83
2023-02-24T18:16:08.560Z,24.55
2023-02-24T18:18:36.683Z,20.60
2023-02-24T18:21:06.332Z,19.85
2023-02-24T18:23:34.626Z,24.73
2023-02-24T18:26:03.818Z,23.27
2023-02-24T18:28:33.456Z,22.27
2023-02-24T18:31:03.301Z,22.67
2023-02-24T18:33:31.580Z,21.90
2023-02-24T18:36:00.421Z,21.92
2023-02-24T18:38:29.087Z,24.88
2023-02-24T18:41:01.392Z,20.97
2023-02-24T18:43:30.280Z,27.58
2023-02-24T18:46:01.420Z,25.60
2023-02-24T18:48:30.664Z,23.77
2023-02-24T18:50:59.596Z,25.98
2023-02-24T18:53:30.000Z,21.48
2023-02-24T18:56:01.903Z,26.15
2023-02-24T18:58:30.457Z,22.20
2023-02-24T19:01:00.501Z,24.98
2023-02-24T19:03:28.632Z,27.35
2023-02-24T19:05:56.719Z,25.00
2023-02-24T19:08:24.817Z,24.42
2023-02-24T19:10:52.884Z,21.77
2023-02-24T19:13:21.001Z,18.70
2023-02-24T19:15:49.107Z,25.50
2023-02-24T19:18:18.690Z,19.60
2023-02-24T19:23:14.750Z,19.13
2023-02-24T19:25:42.865Z,18.80
2023-02-24T19:28:10.947Z,18.15
2023-02-24T19:30:39.960Z,21.88
2023-02-24T19:33:09.539Z,95.88
2023-02-24T19:35:43.052Z,65.50
2023-02-24T19:38:14.584Z,22.52
2023-02-24T19:40:43.590Z,21.13
2023-02-24T19:43:12.245Z,19.65
2023-02-24T19:45:42.783Z,21.98
2023-02-24T19:48:11.088Z,18.42
2023-02-24T19:50:42.052Z,21.35
2023-02-24T19:53:10.591Z,25.35
2023-02-24T19:55:38.817Z,19.03
2023-02-24T19:58:07.036Z,20.83
2023-02-24T20:00:35.104Z,17.02
2023-02-24T20:03:03.158Z,17.02
2023-02-24T20:05:31.288Z,15.32
2023-02-24T20:08:00.774Z,15.15
2023-02-24T20:12:58.012Z,10.00
2023-02-24T20:15:26.180Z,8.50
2023-02-24T20:17:54.259Z,10.35
2023-02-24T20:20:22.386Z,8.88
2023-02-24T20:22:50.473Z,12.57
2023-02-24T20:25:19.910Z,10.10
2023-02-24T20:30:16.215Z,12.10
2023-02-24T20:32:44.425Z,18.10
2023-02-24T20:35:12.724Z,12.55
2023-02-24T20:37:40.848Z,11.13
2023-02-24T20:40:10.504Z,9.00
2023-02-24T20:42:39.994Z,10.57
2023-02-24T20:47:36.624Z,6.55
2023-02-24T20:50:05.728Z,5.72
2023-02-24T20:52:34.319Z,4.45
2023-02-24T20:55:02.538Z,5.18
2023-02-24T20:57:30.829Z,6.97
2023-02-24T21:00:07.150Z,8.68
2023-02-24T21:02:36.504Z,7.55
2023-02-24T21:05:04.936Z,6.93
2023-02-24T21:07:33.160Z,9.40
2023-02-24T21:10:01.245Z,8.93
2023-02-24T21:12:29.325Z,14.32
2023-02-24T21:14:57.480Z,9.88
2023-02-24T21:17:27.229Z,8.23
2023-02-24T21:19:56.592Z,16.10
2023-02-24T21:22:24.688Z,10.88
2023-02-24T21:24:52.754Z,14.65
2023-02-24T21:27:20.844Z,13.10
2023-02-24T21:29:48.933Z,11.60
2023-02-24T21:32:17.132Z,11.18
2023-02-24T21:34:46.766Z,19.70
2023-02-24T21:37:14.844Z,10.75
2023-02-24T21:39:42.928Z,9.55
2023-02-24T21:42:12.088Z,15.75
2023-02-24T21:44:44.174Z,8.88
2023-02-24T21:47:12.584Z,11.95
2023-02-24T21:49:40.898Z,7.93
2023-02-24T21:52:12.152Z,9.80
2023-02-24T21:54:42.262Z,11.20
2023-02-24T21:57:10.387Z,13.38
2023-02-24T21:59:38.437Z,14.77
2023-02-24T22:02:06.631Z,13.82
2023-02-24T22:04:34.767Z,14.00
2023-02-24T22:07:02.890Z,15.50
2023-02-24T22:09:32.379Z,10.02
2023-02-24T22:14:28.337Z,14.13
2023-02-24T22:16:56.379Z,16.67
2023-02-24T22:19:24.763Z,14.30
2023-02-24T22:21:52.856Z,12.63
2023-02-24T22:24:21.953Z,21.00
2023-02-24T22:26:51.718Z,21.88
2023-02-24T22:29:19.807Z,14.65
2023-02-24T22:31:49.794Z,16.25
2023-02-24T22:34:18.212Z,12.25
2023-02-24T22:36:46.297Z,13.93
2023-02-24T22:39:16.586Z,17.25
2023-02-24T22:41:45.530Z,13.07
2023-02-24T22:44:19.044Z,15.75
2023-02-24T22:46:47.142Z,12.27
2023-02-24T22:49:15.323Z,14.07
2023-02-24T22:51:43.504Z,17.63
2023-02-24T22:54:11.577Z,14.50
2023-02-24T22:56:39.676Z,14.25
2023-02-24T22:59:07.761Z,15.00
2023-02-24T23:01:39.206Z,15.23
2023-02-24T23:04:10.083Z,16.88
2023-02-24T23:06:38.454Z,13.25
2023-02-24T23:09:07.828Z,17.35
2023-02-24T23:11:39.020Z,20.08
2023-02-24T23:14:13.312Z,16.55
2023-02-24T23:16:46.430Z,16.15
2023-02-24T23:19:17.484Z,16.48
2023-02-24T23:21:47.931Z,16.95
2023-02-24T23:24:16.877Z,20.45
2023-02-24T23:26:47.105Z,15.70
2023-02-24T23:29:18.270Z,16.77
2023-02-24T23:31:47.982Z,16.23
2023-02-24T23:34:16.624Z,16.40
2023-02-24T23:36:46.990Z,12.60
2023-02-24T23:39:18.242Z,16.10
2023-02-24T23:41:46.331Z,14.77
2023-02-24T23:44:14.420Z,13.90
2023-02-24T23:46:42.836Z,12.45
2023-02-24T23:49:12.408Z,11.60
2023-02-24T23:51:48.407Z,15.98
2023-02-24T23:54:18.261Z,15.35
2023-02-24T23:56:46.898Z,14.68
2023-02-24T23:59:15.391Z,15.45
